sensor_id;sensor_type;location;lat;lon;timestamp;pressure;altitude;pressure_sealevel;temperature;humidity
31403;BME280;18039;52.188;21.024;2022-11-04T00:00:47;77089.56;;;-141.45;96.41
31403;BME280;18039;52.188;21.024;2022-11-04T00:03:14;77093.63;;;-141.45;96.45
31403;BME280;18039;52.188;21.024;2022-11-04T00:05:41;77091.59;;;-141.45;96.62
31403;BME280;18039;52.188;21.024;2022-11-04T00:08:08;77087.53;;;-141.45;96.68
31403;BME280;18039;52.188;21.024;2022-11-04T00:10:57;77083.50;;;-141.45;96.62
31403;BME280;18039;52.188;21.024;2022-11-04T00:13:45;77075.38;;;-141.45;96.35
31403;BME280;18039;52.188;21.024;2022-11-04T00:16:13;77077.41;;;-141.45;96.34
31403;BME280;18039;52.188;21.024;2022-11-04T00:18:59;77075.38;;;-141.45;96.29
31403;BME280;18039;52.188;21.024;2022-11-04T00:21:27;77075.38;;;-141.45;96.62
31403;BME280;18039;52.188;21.024;2022-11-04T00:24:13;77069.28;;;-141.45;96.47
31403;BME280;18039;52.188;21.024;2022-11-04T00:27:20;77071.31;;;-141.45;96.59
31403;BME280;18039;52.188;21.024;2022-11-04T00:30:08;77065.25;;;-141.45;96.38
31403;BME280;18039;52.188;21.024;2022-11-04T00:32:36;77069.28;;;-141.45;96.48
31403;BME280;18039;52.188;21.024;2022-11-04T00:35:21;77071.31;;;-141.45;96.56
31403;BME280;18039;52.188;21.024;2022-11-04T00:37:48;77063.22;;;-141.45;96.62
31403;BME280;18039;52.188;21.024;2022-11-04T00:40:15;77069.28;;;-141.45;96.75
31403;BME280;18039;52.188;21.024;2022-11-04T00:42:44;77067.28;;;-141.45;97.01
31403;BME280;18039;52.188;21.024;2022-11-04T00:45:12;77071.31;;;-141.45;96.89
31403;BME280;18039;52.188;21.024;2022-11-04T00:47:39;77059.16;;;-141.45;97.12
31403;BME280;18039;52.188;21.024;2022-11-04T00:50:06;77063.22;;;-141.45;97.16
31403;BME280;18039;52.188;21.024;2022-11-04T00:52:33;77063.22;;;-141.45;97.25
31403;BME280;18039;52.188;21.024;2022-11-04T00:55:00;77057.13;;;-141.45;97.18
31403;BME280;18039;52.188;21.024;2022-11-04T00:57:27;77049.03;;;-141.45;97.36
31403;BME280;18039;52.188;21.024;2022-11-04T00:59:55;77047.00;;;-141.45;97.14
31403;BME280;18039;52.188;21.024;2022-11-04T01:02:22;77042.94;;;-141.45;97.32
31403;BME280;18039;52.188;21.024;2022-11-04T01:04:49;77030.78;;;-141.45;97.16
31403;BME280;18039;52.188;21.024;2022-11-04T01:07:16;77030.78;;;-141.45;97.19
31403;BME280;18039;52.188;21.024;2022-11-04T01:09:43;77018.63;;;-141.45;97.23
31403;BME280;18039;52.188;21.024;2022-11-04T01:12:11;77010.50;;;-141.45;97.08
31403;BME280;18039;52.188;21.024;2022-11-04T01:14:38;76998.34;;;-141.45;97.15
31403;BME280;18039;52.188;21.024;2022-11-04T01:17:05;76990.22;;;-141.45;97.02
31403;BME280;18039;52.188;21.024;2022-11-04T01:19:33;76982.13;;;-141.45;96.75
31403;BME280;18039;52.188;21.024;2022-11-04T01:21:59;76974.00;;;-141.45;96.74
31403;BME280;18039;52.188;21.024;2022-11-04T01:24:27;76969.94;;;-141.45;96.60
31403;BME280;18039;52.188;21.024;2022-11-04T01:26:54;76969.94;;;-141.45;96.57
31403;BME280;18039;52.188;21.024;2022-11-04T01:29:22;76965.91;;;-141.45;96.34
31403;BME280;18039;52.188;21.024;2022-11-04T01:31:48;76969.94;;;-141.45;96.34
31403;BME280;18039;52.188;21.024;2022-11-04T01:34:16;76957.78;;;-141.45;96.31
31403;BME280;18039;52.188;21.024;2022-11-04T01:36:43;76961.84;;;-141.45;96.19
31403;BME280;18039;52.188;21.024;2022-11-04T01:39:28;76963.88;;;-141.45;96.22
31403;BME280;18039;52.188;21.024;2022-11-04T01:41:55;76957.78;;;-141.45;96.09
31403;BME280;18039;52.188;21.024;2022-11-04T01:50:16;76939.53;;;-141.45;95.96
31403;BME280;18039;52.188;21.024;2022-11-04T01:52:52;76925.34;;;-141.45;95.55
31403;BME280;18039;52.188;21.024;2022-11-04T01:55:23;76915.22;;;-141.45;95.33
31403;BME280;18039;52.188;21.024;2022-11-04T01:57:54;76909.13;;;-141.45;95.06
31403;BME280;18039;52.188;21.024;2022-11-04T02:00:22;76896.97;;;-141.45;94.88
31403;BME280;18039;52.188;21.024;2022-11-04T02:02:55;76896.97;;;-141.45;94.76
31403;BME280;18039;52.188;21.024;2022-11-04T02:05:25;76888.88;;;-141.45;94.48
31403;BME280;18039;52.188;21.024;2022-11-04T02:07:54;76884.81;;;-141.45;94.49
31403;BME280;18039;52.188;21.024;2022-11-04T02:10:26;76880.75;;;-141.45;94.73
31403;BME280;18039;52.188;21.024;2022-11-04T02:12:55;76864.53;;;-141.45;94.47
31403;BME280;18039;52.188;21.024;2022-11-04T02:15:34;76866.56;;;-141.45;94.37
31403;BME280;18039;52.188;21.024;2022-11-04T02:18:12;76864.53;;;-141.45;94.48
31403;BME280;18039;52.188;21.024;2022-11-04T02:32:00;76819.94;;;-141.45;93.10
31403;BME280;18039;52.188;21.024;2022-11-04T02:34:40;76824.00;;;-141.45;93.00
31403;BME280;18039;52.188;21.024;2022-11-04T02:40:24;76811.81;;;-141.45;92.78
31403;BME280;18039;52.188;21.024;2022-11-04T02:45:23;76817.91;;;-141.45;92.85
31403;BME280;18039;52.188;21.024;2022-11-04T02:47:57;76807.78;;;-141.45;92.79
31403;BME280;18039;52.188;21.024;2022-11-04T02:50:48;76803.72;;;-141.45;92.93
31403;BME280;18039;52.188;21.024;2022-11-04T02:53:24;76813.84;;;-141.45;92.86
31403;BME280;18039;52.188;21.024;2022-11-04T02:55:55;76809.81;;;-141.45;92.95
31403;BME280;18039;52.188;21.024;2022-11-04T02:58:32;76807.78;;;-141.45;92.92
31403;BME280;18039;52.188;21.024;2022-11-04T03:01:02;76799.66;;;-141.45;92.87
31403;BME280;18039;52.188;21.024;2022-11-04T03:03:38;76803.72;;;-141.45;92.96
31403;BME280;18039;52.188;21.024;2022-11-04T03:06:08;76799.66;;;-141.45;92.70
31403;BME280;18039;52.188;21.024;2022-11-04T03:08:41;76803.72;;;-141.45;92.65
31403;BME280;18039;52.188;21.024;2022-11-04T03:11:15;76795.59;;;-141.45;92.74
31403;BME280;18039;52.188;21.024;2022-11-04T03:16:32;76795.59;;;-141.45;92.61
31403;BME280;18039;52.188;21.024;2022-11-04T03:21:39;76787.50;;;-141.45;92.50
31403;BME280;18039;52.188;21.024;2022-11-04T03:24:07;76787.50;;;-141.45;92.47
31403;BME280;18039;52.188;21.024;2022-11-04T03:26:50;76791.56;;;-141.45;92.27
31403;BME280;18039;52.188;21.024;2022-11-04T03:29:28;76779.38;;;-141.45;92.31
31403;BME280;18039;52.188;21.024;2022-11-04T03:32:18;76779.38;;;-141.45;91.85
31403;BME280;18039;52.188;21.024;2022-11-04T03:34:48;76779.38;;;-141.45;91.89
31403;BME280;18039;52.188;21.024;2022-11-04T03:37:16;76783.44;;;-141.45;92.04
31403;BME280;18039;52.188;21.024;2022-11-04T03:39:44;76763.16;;;-141.45;91.91
31403;BME280;18039;52.188;21.024;2022-11-04T03:42:12;76771.28;;;-141.45;92.12
31403;BME280;18039;52.188;21.024;2022-11-04T03:44:54;76763.16;;;-141.45;91.94
31403;BME280;18039;52.188;21.024;2022-11-04T03:47:24;76759.13;;;-141.45;91.64
31403;BME280;18039;52.188;21.024;2022-11-04T03:49:57;76761.16;;;-141.45;91.70
31403;BME280;18039;52.188;21.024;2022-11-04T03:52:27;76746.97;;;-141.45;91.64
31403;BME280;18039;52.188;21.024;2022-11-04T03:54:54;76738.84;;;-141.45;91.21
31403;BME280;18039;52.188;21.024;2022-11-04T04:00:04;76724.66;;;-141.45;91.32
31403;BME280;18039;52.188;21.024;2022-11-04T04:02:59;76722.63;;;-141.45;91.06
31403;BME280;18039;52.188;21.024;2022-11-04T04:13:47;76686.13;;;-141.45;90.05
31403;BME280;18039;52.188;21.024;2022-11-04T04:16:21;76678.03;;;-141.45;90.39
31403;BME280;18039;52.188;21.024;2022-11-04T04:18:59;76680.06;;;-141.45;90.16
31403;BME280;18039;52.188;21.024;2022-11-04T04:21:32;76673.97;;;-141.45;90.06
31403;BME280;18039;52.188;21.024;2022-11-04T04:24:04;76678.03;;;-141.45;90.56
31403;BME280;18039;52.188;21.024;2022-11-04T04:26:52;76678.03;;;-141.45;90.62
31403;BME280;18039;52.188;21.024;2022-11-04T04:29:42;76678.03;;;-141.45;90.75
31403;BME280;18039;52.188;21.024;2022-11-04T04:32:10;76682.09;;;-141.45;90.64
31403;BME280;18039;52.188;21.024;2022-11-04T04:34:38;76678.03;;;-141.45;90.92
31403;BME280;18039;52.188;21.024;2022-11-04T04:37:08;76669.94;;;-141.45;90.59
31403;BME280;18039;52.188;21.024;2022-11-04T04:39:49;76673.97;;;-141.45;90.47
31403;BME280;18039;52.188;21.024;2022-11-04T04:42:36;76678.03;;;-141.45;89.96
31403;BME280;18039;52.188;21.024;2022-11-04T04:45:37;76678.03;;;-141.45;90.23
31403;BME280;18039;52.188;21.024;2022-11-04T04:48:08;76669.94;;;-141.45;90.37
31403;BME280;18039;52.188;21.024;2022-11-04T04:50:37;76671.94;;;-141.45;89.96
31403;BME280;18039;52.188;21.024;2022-11-04T04:53:06;76665.88;;;-141.45;90.09
31403;BME280;18039;52.188;21.024;2022-11-04T04:55:34;76665.88;;;-141.45;89.82
31403;BME280;18039;52.188;21.024;2022-11-04T04:58:08;76661.81;;;-141.45;89.93
31403;BME280;18039;52.188;21.024;2022-11-04T05:00:35;76649.66;;;-141.45;89.96
31403;BME280;18039;52.188;21.024;2022-11-04T05:03:02;76643.56;;;-141.45;89.67
31403;BME280;18039;52.188;21.024;2022-11-04T05:05:29;76649.66;;;-141.45;89.46
31403;BME280;18039;52.188;21.024;2022-11-04T05:08:07;76645.59;;;-141.45;89.46
31403;BME280;18039;52.188;21.024;2022-11-04T05:10:34;76651.69;;;-141.45;89.07
31403;BME280;18039;52.188;21.024;2022-11-04T05:13:02;76645.59;;;-141.45;89.16
31403;BME280;18039;52.188;21.024;2022-11-04T05:15:48;76641.53;;;-141.45;89.15
31403;BME280;18039;52.188;21.024;2022-11-04T05:18:16;76649.66;;;-141.45;89.64
31403;BME280;18039;52.188;21.024;2022-11-04T05:20:43;76649.66;;;-141.45;89.73
31403;BME280;18039;52.188;21.024;2022-11-04T05:23:10;76647.63;;;-141.45;89.97
31403;BME280;18039;52.188;21.024;2022-11-04T05:25:39;76645.59;;;-141.45;90.31
31403;BME280;18039;52.188;21.024;2022-11-04T05:28:07;76649.66;;;-141.45;90.39
31403;BME280;18039;52.188;21.024;2022-11-04T05:30:35;76637.50;;;-141.45;90.61
31403;BME280;18039;52.188;21.024;2022-11-04T05:33:03;76633.44;;;-141.45;90.45
31403;BME280;18039;52.188;21.024;2022-11-04T05:35:31;76631.41;;;-141.45;90.44
31403;BME280;18039;52.188;21.024;2022-11-04T05:37:59;76625.31;;;-141.45;90.59
31403;BME280;18039;52.188;21.024;2022-11-04T05:40:26;76627.34;;;-141.45;90.44
31403;BME280;18039;52.188;21.024;2022-11-04T05:42:56;76621.28;;;-141.45;90.58
31403;BME280;18039;52.188;21.024;2022-11-04T05:45:24;76625.31;;;-141.45;90.25
31403;BME280;18039;52.188;21.024;2022-11-04T05:47:59;76621.28;;;-141.45;89.68
31403;BME280;18039;52.188;21.024;2022-11-04T05:50:27;76613.16;;;-141.45;89.67
31403;BME280;18039;52.188;21.024;2022-11-04T05:52:56;76609.09;;;-141.45;89.68
31403;BME280;18039;52.188;21.024;2022-11-04T05:55:24;76605.06;;;-141.45;89.46
31403;BME280;18039;52.188;21.024;2022-11-04T05:57:52;76601.00;;;-141.45;89.17
31403;BME280;18039;52.188;21.024;2022-11-04T06:00:20;76596.94;;;-141.45;88.62
31403;BME280;18039;52.188;21.024;2022-11-04T06:02:48;76586.81;;;-141.45;88.45
31403;BME280;18039;52.188;21.024;2022-11-04T06:05:15;76584.78;;;-141.45;88.38
31403;BME280;18039;52.188;21.024;2022-11-04T06:07:43;76578.69;;;-141.45;88.25
31403;BME280;18039;52.188;21.024;2022-11-04T06:10:10;76572.63;;;-141.45;87.55
31403;BME280;18039;52.188;21.024;2022-11-04T06:12:38;76576.69;;;-141.45;87.29
31403;BME280;18039;52.188;21.024;2022-11-04T06:15:06;76572.63;;;-141.45;86.66
31403;BME280;18039;52.188;21.024;2022-11-04T06:17:34;76556.41;;;-141.45;87.21
31403;BME280;18039;52.188;21.024;2022-11-04T06:20:01;76556.41;;;-141.45;87.25
31403;BME280;18039;52.188;21.024;2022-11-04T06:22:29;76556.41;;;-141.45;87.15
31403;BME280;18039;52.188;21.024;2022-11-04T06:24:56;76546.28;;;-141.45;87.57
31403;BME280;18039;52.188;21.024;2022-11-04T06:27:23;76544.25;;;-141.45;86.88
31403;BME280;18039;52.188;21.024;2022-11-04T06:29:50;76536.13;;;-141.45;86.84
31403;BME280;18039;52.188;21.024;2022-11-04T06:32:19;76540.19;;;-141.45;86.77
31403;BME280;18039;52.188;21.024;2022-11-04T06:34:46;76536.13;;;-141.45;86.60
31403;BME280;18039;52.188;21.024;2022-11-04T06:37:13;76532.09;;;-141.45;86.32
31403;BME280;18039;52.188;21.024;2022-11-04T06:39:40;76523.97;;;-141.45;86.22
31403;BME280;18039;52.188;21.024;2022-11-04T06:42:07;76523.97;;;-141.45;85.47
31403;BME280;18039;52.188;21.024;2022-11-04T06:44:34;76523.97;;;-141.45;86.02
31403;BME280;18039;52.188;21.024;2022-11-04T06:47:03;76511.81;;;-141.45;85.59
31403;BME280;18039;52.188;21.024;2022-11-04T06:49:30;76511.81;;;-141.45;85.48
31403;BME280;18039;52.188;21.024;2022-11-04T06:51:57;76499.66;;;-141.45;85.24
31403;BME280;18039;52.188;21.024;2022-11-04T06:54:24;76499.66;;;-141.45;85.17
31403;BME280;18039;52.188;21.024;2022-11-04T06:56:51;76487.50;;;-141.45;84.75
31403;BME280;18039;52.188;21.024;2022-11-04T06:59:19;76483.44;;;-141.45;84.40
31403;BME280;18039;52.188;21.024;2022-11-04T07:01:48;76483.44;;;-141.45;83.52
31403;BME280;18039;52.188;21.024;2022-11-04T07:04:18;76471.28;;;-141.45;83.63
31403;BME280;18039;52.188;21.024;2022-11-04T07:06:45;76465.19;;;-141.45;83.04
31403;BME280;18039;52.188;21.024;2022-11-04T07:09:14;76455.06;;;-141.45;82.84
31403;BME280;18039;52.188;21.024;2022-11-04T07:11:42;76459.09;;;-141.45;83.06
31403;BME280;18039;52.188;21.024;2022-11-04T07:14:10;76453.03;;;-141.45;82.47
31403;BME280;18039;52.188;21.024;2022-11-04T07:16:38;76446.94;;;-141.45;82.91
31403;BME280;18039;52.188;21.024;2022-11-04T07:19:05;76444.91;;;-141.45;82.33
31403;BME280;18039;52.188;21.024;2022-11-04T07:21:33;76455.06;;;-141.45;82.55
31403;BME280;18039;52.188;21.024;2022-11-04T07:24:00;76446.94;;;-141.45;82.53
31403;BME280;18039;52.188;21.024;2022-11-04T07:26:28;76440.88;;;-141.45;82.28
31403;BME280;18039;52.188;21.024;2022-11-04T07:28:55;76434.78;;;-141.45;81.86
31403;BME280;18039;52.188;21.024;2022-11-04T07:31:24;76424.66;;;-141.45;81.60
31403;BME280;18039;52.188;21.024;2022-11-04T07:33:52;76414.50;;;-141.45;81.20
31403;BME280;18039;52.188;21.024;2022-11-04T07:36:19;76406.41;;;-141.45;81.20
31403;BME280;18039;52.188;21.024;2022-11-04T07:38:47;76394.25;;;-141.45;81.50
31403;BME280;18039;52.188;21.024;2022-11-04T07:41:15;76390.19;;;-141.45;80.99
31403;BME280;18039;52.188;21.024;2022-11-04T07:43:47;76394.25;;;-141.45;81.04
31403;BME280;18039;52.188;21.024;2022-11-04T07:46:14;76394.25;;;-141.45;81.27
31403;BME280;18039;52.188;21.024;2022-11-04T07:48:42;76390.19;;;-141.45;80.81
31403;BME280;18039;52.188;21.024;2022-11-04T07:51:12;76378.03;;;-141.45;81.11
31403;BME280;18039;52.188;21.024;2022-11-04T07:53:41;76369.91;;;-141.45;80.84
31403;BME280;18039;52.188;21.024;2022-11-04T07:56:10;76359.78;;;-141.45;80.81
31403;BME280;18039;52.188;21.024;2022-11-04T07:58:40;76353.72;;;-141.45;80.04
31403;BME280;18039;52.188;21.024;2022-11-04T08:01:11;76353.72;;;-141.45;79.90
31403;BME280;18039;52.188;21.024;2022-11-04T08:03:39;76353.72;;;-141.45;79.84
31403;BME280;18039;52.188;21.024;2022-11-04T08:06:09;76357.75;;;-141.45;80.07
31403;BME280;18039;52.188;21.024;2022-11-04T08:08:36;76345.59;;;-141.45;79.81
31403;BME280;18039;52.188;21.024;2022-11-04T08:11:09;76341.53;;;-141.45;80.15
31403;BME280;18039;52.188;21.024;2022-11-04T08:13:43;76337.50;;;-141.45;80.01
31403;BME280;18039;52.188;21.024;2022-11-04T08:16:13;76337.50;;;-141.45;79.51
31403;BME280;18039;52.188;21.024;2022-11-04T08:18:41;76341.53;;;-141.45;79.59
31403;BME280;18039;52.188;21.024;2022-11-04T08:21:09;76345.59;;;-141.45;80.14
31403;BME280;18039;52.188;21.024;2022-11-04T08:23:36;76341.53;;;-141.45;79.84
31403;BME280;18039;52.188;21.024;2022-11-04T08:26:07;76333.44;;;-141.45;79.48
31403;BME280;18039;52.188;21.024;2022-11-04T08:28:35;76337.50;;;-141.45;79.43
31403;BME280;18039;52.188;21.024;2022-11-04T08:33:32;76319.25;;;-141.45;79.19
31403;BME280;18039;52.188;21.024;2022-11-04T08:36:04;76319.25;;;-141.45;78.42
31403;BME280;18039;52.188;21.024;2022-11-04T08:38:32;76309.13;;;-141.45;78.69
31403;BME280;18039;52.188;21.024;2022-11-04T08:41:02;76315.19;;;-141.45;78.34
31403;BME280;18039;52.188;21.024;2022-11-04T08:43:29;76319.25;;;-141.45;78.51
31403;BME280;18039;52.188;21.024;2022-11-04T08:45:57;76301.00;;;-141.45;78.47
31403;BME280;18039;52.188;21.024;2022-11-04T08:48:24;76288.84;;;-141.45;78.64
31403;BME280;18039;52.188;21.024;2022-11-04T08:50:53;76284.78;;;-141.45;78.04
31403;BME280;18039;52.188;21.024;2022-11-04T08:53:21;76280.72;;;-141.45;77.51
31403;BME280;18039;52.188;21.024;2022-11-04T08:55:48;76280.72;;;-141.45;77.64
31403;BME280;18039;52.188;21.024;2022-11-04T08:58:16;76256.41;;;-141.45;77.76
31403;BME280;18039;52.188;21.024;2022-11-04T09:00:43;76256.41;;;-141.45;77.61
31403;BME280;18039;52.188;21.024;2022-11-04T09:03:10;76244.25;;;-141.45;77.07
31403;BME280;18039;52.188;21.024;2022-11-04T09:05:39;76242.22;;;-141.45;77.07
31403;BME280;18039;52.188;21.024;2022-11-04T09:08:16;76240.19;;;-141.45;76.49
31403;BME280;18039;52.188;21.024;2022-11-04T09:10:46;76236.16;;;-141.45;76.51
31403;BME280;18039;52.188;21.024;2022-11-04T09:13:14;76228.03;;;-141.45;76.85
31403;BME280;18039;52.188;21.024;2022-11-04T09:15:42;76226.00;;;-141.45;76.04
31403;BME280;18039;52.188;21.024;2022-11-04T09:18:09;76228.03;;;-141.45;76.33
31403;BME280;18039;52.188;21.024;2022-11-04T09:20:36;76211.81;;;-141.45;76.42
31403;BME280;18039;52.188;21.024;2022-11-04T09:23:08;76207.78;;;-141.45;76.51
31403;BME280;18039;52.188;21.024;2022-11-04T09:25:36;76193.56;;;-141.45;75.53
31403;BME280;18039;52.188;21.024;2022-11-04T09:28:03;76195.59;;;-141.45;75.44
31403;BME280;18039;52.188;21.024;2022-11-04T09:30:31;76179.38;;;-141.45;75.45
31403;BME280;18039;52.188;21.024;2022-11-04T09:32:58;76171.28;;;-141.45;75.16
31403;BME280;18039;52.188;21.024;2022-11-04T09:35:26;76159.13;;;-141.45;74.78
31403;BME280;18039;52.188;21.024;2022-11-04T09:37:54;76155.06;;;-141.45;74.45
31403;BME280;18039;52.188;21.024;2022-11-04T09:40:23;76151.00;;;-141.45;74.36
31403;BME280;18039;52.188;21.024;2022-11-04T09:45:39;76159.13;;;-141.45;74.14
31403;BME280;18039;52.188;21.024;2022-11-04T09:48:13;76142.91;;;-141.45;73.82
31403;BME280;18039;52.188;21.024;2022-11-04T09:50:54;76153.03;;;-141.45;74.00
31403;BME280;18039;52.188;21.024;2022-11-04T09:53:28;76142.91;;;-141.45;74.63
31403;BME280;18039;52.188;21.024;2022-11-04T09:56:02;76142.91;;;-141.45;74.30
31403;BME280;18039;52.188;21.024;2022-11-04T09:58:33;76138.84;;;-141.45;74.42
31403;BME280;18039;52.188;21.024;2022-11-04T10:01:19;76130.75;;;-141.45;74.14
31403;BME280;18039;52.188;21.024;2022-11-04T10:12:40;76116.56;;;-141.45;74.73
31403;BME280;18039;52.188;21.024;2022-11-04T10:15:14;76124.66;;;-141.45;74.99
31403;BME280;18039;52.188;21.024;2022-11-04T10:20:21;76084.13;;;-141.45;74.28
31403;BME280;18039;52.188;21.024;2022-11-04T10:22:57;76082.09;;;-141.45;74.14
31403;BME280;18039;52.188;21.024;2022-11-04T10:28:21;76021.31;;;-141.45;72.56
31403;BME280;18039;52.188;21.024;2022-11-04T10:30:51;76021.31;;;-141.45;71.85
31403;BME280;18039;52.188;21.024;2022-11-04T10:38:35;75962.53;;;-141.45;71.45
31403;BME280;18039;52.188;21.024;2022-11-04T10:41:37;75944.28;;;-141.45;70.39
31403;BME280;18039;52.188;21.024;2022-11-04T10:53:12;75984.81;;;-141.45;72.67
31403;BME280;18039;52.188;21.024;2022-11-04T10:55:49;75964.56;;;-141.45;72.11
31403;BME280;18039;52.188;21.024;2022-11-04T10:58:24;75950.38;;;-141.45;71.57
31403;BME280;18039;52.188;21.024;2022-11-04T11:00:54;75924.00;;;-141.45;71.46
31403;BME280;18039;52.188;21.024;2022-11-04T11:05:51;75883.47;;;-141.45;70.84
31403;BME280;18039;52.188;21.024;2022-11-04T11:08:32;75865.25;;;-141.45;69.80
31403;BME280;18039;52.188;21.024;2022-11-04T11:11:07;75836.88;;;-141.45;68.96
31403;BME280;18039;52.188;21.024;2022-11-04T11:13:35;75814.56;;;-141.45;68.02
31403;BME280;18039;52.188;21.024;2022-11-04T11:16:08;75778.09;;;-141.45;67.19
31403;BME280;18039;52.188;21.024;2022-11-04T11:18:36;75761.88;;;-141.45;66.77
31403;BME280;18039;52.188;21.024;2022-11-04T11:23:44;75719.31;;;-141.45;66.46
31403;BME280;18039;52.188;21.024;2022-11-04T11:26:18;75729.47;;;-141.45;65.67
31403;BME280;18039;52.188;21.024;2022-11-04T11:28:52;75727.44;;;-141.45;65.61
31403;BME280;18039;52.188;21.024;2022-11-04T11:31:36;75721.34;;;-141.45;65.44
31403;BME280;18039;52.188;21.024;2022-11-04T11:34:13;75711.22;;;-141.45;64.86
31403;BME280;18039;52.188;21.024;2022-11-04T11:36:42;75717.28;;;-141.45;64.35
31403;BME280;18039;52.188;21.024;2022-11-04T11:41:50;75723.38;;;-141.45;63.64
31403;BME280;18039;52.188;21.024;2022-11-04T11:47:20;75721.34;;;-141.45;64.83
31403;BME280;18039;52.188;21.024;2022-11-04T11:50:14;75717.28;;;-141.45;64.06
31403;BME280;18039;52.188;21.024;2022-11-04T11:52:43;75713.25;;;-141.45;63.93
31403;BME280;18039;52.188;21.024;2022-11-04T11:55:24;75725.41;;;-141.45;63.57
31403;BME280;18039;52.188;21.024;2022-11-04T12:03:30;75721.34;;;-141.45;63.72
31403;BME280;18039;52.188;21.024;2022-11-04T12:06:44;75723.38;;;-141.45;63.62
31403;BME280;18039;52.188;21.024;2022-11-04T12:09:47;75717.28;;;-141.45;63.81
31403;BME280;18039;52.188;21.024;2022-11-04T12:17:51;75709.19;;;-141.45;63.24
31403;BME280;18039;52.188;21.024;2022-11-04T12:32:35;75692.97;;;-141.45;63.55
31403;BME280;18039;52.188;21.024;2022-11-04T12:47:40;75676.75;;;-141.45;63.60
31403;BME280;18039;52.188;21.024;2022-11-04T12:53:35;75680.81;;;-141.45;63.54
31403;BME280;18039;52.188;21.024;2022-11-04T12:56:10;75684.88;;;-141.45;63.36
31403;BME280;18039;52.188;21.024;2022-11-04T12:59:04;75688.94;;;-141.45;63.25
31403;BME280;18039;52.188;21.024;2022-11-04T13:04:21;75692.97;;;-141.45;61.81
31403;BME280;18039;52.188;21.024;2022-11-04T13:07:00;75701.09;;;-141.45;61.38
31403;BME280;18039;52.188;21.024;2022-11-04T13:09:40;75705.13;;;-141.45;61.14
31403;BME280;18039;52.188;21.024;2022-11-04T13:12:21;75697.03;;;-141.45;61.08
31403;BME280;18039;52.188;21.024;2022-11-04T13:15:20;75692.97;;;-141.45;61.14
31403;BME280;18039;52.188;21.024;2022-11-04T13:17:51;75692.97;;;-141.45;61.18
31403;BME280;18039;52.188;21.024;2022-11-04T13:20:39;75701.09;;;-141.45;60.98
31403;BME280;18039;52.188;21.024;2022-11-04T13:23:16;75705.13;;;-141.45;60.92
31403;BME280;18039;52.188;21.024;2022-11-04T13:25:47;75713.25;;;-141.45;61.81
31403;BME280;18039;52.188;21.024;2022-11-04T13:28:16;75717.28;;;-141.45;61.88
31403;BME280;18039;52.188;21.024;2022-11-04T13:31:03;75721.34;;;-141.45;61.28
31403;BME280;18039;52.188;21.024;2022-11-04T13:38:57;75733.50;;;-141.45;61.61
31403;BME280;18039;52.188;21.024;2022-11-04T13:44:15;75737.56;;;-141.45;61.81
31403;BME280;18039;52.188;21.024;2022-11-04T13:46:48;75761.88;;;-141.45;62.20
31403;BME280;18039;52.188;21.024;2022-11-04T13:49:26;75745.66;;;-141.45;61.44
31403;BME280;18039;52.188;21.024;2022-11-04T13:52:13;75753.78;;;-141.45;61.81
31403;BME280;18039;52.188;21.024;2022-11-04T13:57:21;75778.09;;;-141.45;62.86
31403;BME280;18039;52.188;21.024;2022-11-04T14:02:43;75786.19;;;-141.45;62.79
31403;BME280;18039;52.188;21.024;2022-11-04T14:18:44;75814.56;;;-141.45;64.01
31403;BME280;18039;52.188;21.024;2022-11-04T14:21:14;75826.72;;;-141.45;64.41
31403;BME280;18039;52.188;21.024;2022-11-04T14:23:44;75834.84;;;-141.45;64.71
31403;BME280;18039;52.188;21.024;2022-11-04T14:26:14;75842.94;;;-141.45;65.18
31403;BME280;18039;52.188;21.024;2022-11-04T14:28:44;75842.94;;;-141.45;65.44
31403;BME280;18039;52.188;21.024;2022-11-04T14:31:14;75855.09;;;-141.45;65.65
31403;BME280;18039;52.188;21.024;2022-11-04T14:34:00;75859.16;;;-141.45;66.09
31403;BME280;18039;52.188;21.024;2022-11-04T14:36:34;75859.16;;;-141.45;66.26
31403;BME280;18039;52.188;21.024;2022-11-04T14:44:12;75875.38;;;-141.45;67.22
31403;BME280;18039;52.188;21.024;2022-11-04T14:46:46;75883.47;;;-141.45;67.33
31403;BME280;18039;52.188;21.024;2022-11-04T14:52:19;75889.56;;;-141.45;67.84
31403;BME280;18039;52.188;21.024;2022-11-04T14:54:46;75893.63;;;-141.45;67.90
31403;BME280;18039;52.188;21.024;2022-11-04T14:57:19;75895.66;;;-141.45;67.72
31403;BME280;18039;52.188;21.024;2022-11-04T14:59:47;75899.69;;;-141.45;68.09
31403;BME280;18039;52.188;21.024;2022-11-04T15:02:21;75903.75;;;-141.45;68.29
31403;BME280;18039;52.188;21.024;2022-11-04T15:04:57;75907.81;;;-141.45;68.23
31403;BME280;18039;52.188;21.024;2022-11-04T15:07:45;75924.00;;;-141.45;68.89
31403;BME280;18039;52.188;21.024;2022-11-04T15:10:22;75915.91;;;-141.45;68.99
31403;BME280;18039;52.188;21.024;2022-11-04T15:12:56;75915.91;;;-141.45;69.01
31403;BME280;18039;52.188;21.024;2022-11-04T15:15:35;75922.00;;;-141.45;69.22
31403;BME280;18039;52.188;21.024;2022-11-04T15:18:11;75909.81;;;-141.45;69.40
31403;BME280;18039;52.188;21.024;2022-11-04T15:20:48;75907.81;;;-141.45;68.89
31403;BME280;18039;52.188;21.024;2022-11-04T15:23:32;75907.81;;;-141.45;69.20
31403;BME280;18039;52.188;21.024;2022-11-04T15:26:01;75913.88;;;-141.45;69.55
31403;BME280;18039;52.188;21.024;2022-11-04T15:28:36;75919.97;;;-141.45;69.97
31403;BME280;18039;52.188;21.024;2022-11-04T15:31:14;75924.00;;;-141.45;70.25
31403;BME280;18039;52.188;21.024;2022-11-04T15:33:49;75928.06;;;-141.45;70.13
31403;BME280;18039;52.188;21.024;2022-11-04T15:36:22;75928.06;;;-141.45;70.41